createdAt,value
2022-10-30T00:00:24.249Z,81.07
2022-10-30T00:05:27.005Z,82.40
2022-10-30T00:10:29.157Z,79.50
2022-10-30T00:15:31.456Z,66.22
2022-10-30T00:20:36.199Z,47.65
2022-10-30T00:25:38.511Z,38.00
2022-10-30T00:30:41.074Z,39.13
2022-10-30T00:35:49.438Z,38.58
2022-10-30T00:40:51.894Z,31.00
2022-10-30T00:45:54.517Z,37.95
2022-10-30T00:51:00.466Z,31.38
2022-10-30T00:56:07.513Z,32.17
2022-10-30T01:01:16.844Z,26.27
2022-10-30T01:06:20.090Z,27.35
2022-10-30T01:11:22.398Z,30.73
2022-10-30T01:16:43.468Z,31.60
2022-10-30T01:22:07.510Z,21.92
2022-10-30T01:27:28.400Z,30.48
2022-10-30T01:32:40.458Z,21.45
2022-10-30T01:37:58.507Z,22.17
2022-10-30T01:43:01.336Z,19.33
2022-10-30T01:48:41.952Z,21.27
2022-10-30T01:53:54.303Z,17.63
2022-10-30T01:59:16.142Z,21.25
2022-10-30T02:04:18.605Z,26.45
2022-10-30T02:09:20.936Z,16.85
2022-10-30T02:14:32.171Z,20.05
2022-10-30T02:19:35.115Z,22.38
2022-10-30T02:24:37.491Z,16.83
2022-10-30T02:29:39.724Z,21.92
2022-10-30T02:34:43.482Z,18.40
2022-10-30T02:39:45.801Z,18.75
2022-10-30T02:44:48.157Z,15.55
2022-10-30T02:49:50.318Z,16.83
2022-10-30T02:54:52.689Z,17.30
2022-10-30T02:59:54.924Z,23.08
2022-10-30T03:04:57.131Z,20.20
2022-10-30T03:09:59.345Z,21.20
2022-10-30T03:15:01.516Z,17.52
2022-10-30T03:20:03.930Z,9.93
2022-10-30T03:25:06.644Z,13.88
2022-10-30T03:30:09.725Z,15.23
2022-10-30T03:35:11.947Z,20.52
2022-10-30T03:40:14.221Z,16.42
2022-10-30T03:45:16.602Z,18.48
2022-10-30T03:50:18.828Z,13.73
2022-10-30T03:55:21.555Z,18.17
2022-10-30T04:00:23.786Z,15.27
2022-10-30T04:05:27.909Z,16.80
2022-10-30T04:10:30.370Z,21.17
2022-10-30T04:15:33.537Z,17.17
2022-10-30T04:20:35.764Z,17.08
2022-10-30T04:25:37.944Z,17.40
2022-10-30T04:30:40.944Z,16.45
2022-10-30T04:35:43.507Z,17.70
2022-10-30T04:40:45.900Z,21.08
2022-10-30T04:45:48.085Z,16.13
2022-10-30T04:50:50.382Z,18.80
2022-10-30T04:55:56.333Z,20.80
2022-10-30T05:01:06.333Z,17.58
2022-10-30T05:11:16.767Z,22.80
2022-10-30T05:16:19.106Z,19.00
2022-10-30T05:21:21.446Z,15.63
2022-10-30T05:26:24.236Z,27.70
2022-10-30T05:31:26.420Z,31.73
2022-10-30T05:36:28.670Z,37.63
2022-10-30T05:41:31.159Z,36.00
2022-10-30T05:46:33.522Z,32.45
2022-10-30T05:51:38.160Z,42.42
2022-10-30T05:56:42.823Z,36.40
2022-10-30T06:06:52.290Z,28.75
2022-10-30T06:11:54.952Z,29.63
2022-10-30T06:16:57.280Z,25.17
2022-10-30T06:21:59.604Z,30.42
2022-10-30T06:27:01.960Z,31.98
2022-10-30T06:32:06.720Z,32.15
2022-10-30T06:37:09.403Z,30.77
2022-10-30T06:42:11.635Z,35.65
2022-10-30T06:47:13.932Z,26.50
2022-10-30T06:52:16.105Z,28.35
2022-10-30T06:57:18.346Z,27.02
2022-10-30T07:02:20.839Z,25.63
2022-10-30T07:07:23.135Z,33.20
2022-10-30T07:12:25.472Z,30.08
2022-10-30T07:17:27.696Z,27.75
2022-10-30T07:22:29.903Z,25.15
2022-10-30T07:27:32.099Z,27.13
2022-10-30T07:32:34.443Z,20.65
2022-10-30T07:37:36.683Z,23.40
2022-10-30T07:42:38.865Z,21.40
2022-10-30T07:47:42.441Z,21.37
2022-10-30T07:52:44.852Z,24.55
2022-10-30T07:57:47.126Z,21.30
2022-10-30T08:02:52.907Z,17.80
2022-10-30T08:07:55.662Z,17.90
2022-10-30T08:12:58.072Z,16.98
2022-10-30T08:18:00.708Z,13.05
2022-10-30T08:23:03.351Z,19.23
2022-10-30T08:28:07.353Z,13.65
2022-10-30T08:33:16.044Z,11.00
2022-10-30T08:38:18.455Z,16.80
2022-10-30T08:43:21.231Z,12.18
2022-10-30T08:48:23.584Z,21.10
2022-10-30T08:53:25.970Z,15.30
2022-10-30T08:58:28.722Z,12.05
2022-10-30T09:03:30.913Z,17.15
2022-10-30T09:08:33.096Z,14.75
2022-10-30T09:13:36.004Z,15.73
2022-10-30T09:18:38.420Z,11.32
2022-10-30T09:23:42.760Z,12.07
2022-10-30T09:28:45.074Z,13.60
2022-10-30T09:33:47.300Z,11.05
2022-10-30T09:38:49.505Z,15.73
2022-10-30T09:44:22.716Z,9.55
2022-10-30T09:49:38.451Z,9.90
2022-10-30T09:54:57.057Z,10.90
2022-10-30T10:00:02.241Z,11.43
2022-10-30T10:05:21.986Z,9.70
2022-10-30T10:15:35.539Z,12.50
2022-10-30T10:20:44.446Z,9.57
2022-10-30T10:25:54.692Z,18.88
2022-10-30T10:31:13.249Z,12.88
2022-10-30T10:36:29.947Z,8.52
2022-10-30T10:42:06.247Z,9.68
2022-10-30T10:47:51.777Z,10.05
2022-10-30T10:53:02.318Z,16.50
2022-10-30T10:58:26.087Z,18.20
2022-10-30T11:03:48.451Z,6.88
2022-10-30T11:08:53.905Z,7.28
2022-10-30T11:13:56.596Z,9.70
2022-10-30T11:19:02.036Z,6.25
2022-10-30T11:24:04.397Z,7.40
2022-10-30T11:29:15.667Z,12.93
2022-10-30T11:34:17.799Z,10.48
2022-10-30T11:39:35.849Z,8.05
2022-10-30T11:44:50.911Z,6.45
2022-10-30T11:49:57.501Z,8.00
2022-10-30T11:55:30.550Z,8.10
2022-10-30T12:00:36.646Z,9.82
2022-10-30T12:05:42.427Z,8.82
2022-10-30T12:10:51.806Z,16.77
2022-10-30T12:16:09.458Z,12.50
2022-10-30T12:21:20.366Z,10.23
2022-10-30T12:26:23.800Z,10.98
2022-10-30T12:31:32.116Z,7.68
2022-10-30T12:36:42.626Z,9.05
2022-10-30T12:42:03.287Z,8.55
2022-10-30T12:47:51.492Z,12.73
2022-10-30T12:53:03.029Z,7.88
2022-10-30T12:58:33.970Z,10.57
2022-10-30T13:03:58.661Z,7.70
2022-10-30T13:09:24.588Z,5.78
2022-10-30T13:14:37.851Z,10.00
2022-10-30T13:19:47.935Z,9.70
2022-10-30T13:25:05.353Z,8.65
2022-10-30T13:30:11.536Z,11.70
2022-10-30T13:35:22.871Z,7.95
2022-10-30T13:40:47.389Z,11.65
2022-10-30T13:46:11.790Z,8.98
2022-10-30T13:51:35.805Z,9.75
2022-10-30T13:56:38.578Z,9.57
2022-10-30T14:01:49.789Z,12.30
2022-10-30T14:07:17.088Z,7.85
2022-10-30T14:12:43.941Z,8.32
2022-10-30T14:18:24.863Z,10.57
2022-10-30T14:23:36.051Z,10.25
2022-10-30T14:28:40.724Z,5.15
2022-10-30T14:33:56.635Z,6.78
2022-10-30T14:39:29.286Z,8.30
2022-10-30T14:44:53.487Z,6.00
2022-10-30T14:49:58.693Z,7.07
2022-10-30T14:55:26.476Z,5.63
2022-10-30T15:00:48.931Z,6.72
2022-10-30T15:05:51.644Z,10.93
2022-10-30T15:11:29.652Z,8.23
2022-10-30T15:16:37.269Z,7.47
2022-10-30T15:21:44.704Z,14.05
2022-10-30T15:26:59.761Z,11.63
2022-10-30T15:32:04.879Z,12.10
2022-10-30T15:37:13.630Z,18.05
2022-10-30T15:42:16.599Z,22.15
2022-10-30T15:47:21.396Z,17.67
2022-10-30T15:52:32.984Z,16.42
2022-10-30T16:03:14.213Z,16.63
2022-10-30T16:13:32.446Z,33.13
2022-10-30T16:18:36.618Z,24.35
2022-10-30T16:23:47.873Z,21.42
2022-10-30T16:28:50.237Z,24.92
2022-10-30T16:33:53.125Z,29.35
2022-10-30T16:38:56.543Z,25.90
2022-10-30T16:44:27.859Z,26.50
2022-10-30T16:49:32.921Z,31.63
2022-10-30T16:54:41.197Z,32.78
2022-10-30T16:59:51.336Z,30.25
2022-10-30T17:04:58.575Z,30.33
2022-10-30T17:10:01.055Z,19.92
2022-10-30T17:15:13.909Z,48.42
2022-10-30T17:20:23.955Z,31.83
2022-10-30T17:25:37.138Z,34.03
2022-10-30T17:30:43.899Z,30.52
2022-10-30T17:35:46.120Z,31.85
2022-10-30T17:40:49.451Z,28.48
2022-10-30T17:45:51.964Z,39.72
2022-10-30T17:50:54.776Z,25.42
2022-10-30T17:56:04.746Z,24.20
2022-10-30T18:01:07.373Z,22.63
2022-10-30T18:06:17.777Z,26.60
2022-10-30T18:11:22.841Z,33.97
2022-10-30T18:16:25.824Z,42.20
2022-10-30T18:21:28.125Z,44.63
2022-10-30T18:26:30.720Z,52.75
2022-10-30T18:31:32.989Z,53.90
2022-10-30T18:36:35.173Z,55.17
2022-10-30T18:41:41.162Z,36.85
2022-10-30T18:46:46.027Z,41.88
2022-10-30T18:51:48.411Z,29.70
2022-10-30T18:56:50.594Z,47.22
2022-10-30T19:01:53.129Z,41.20
2022-10-30T19:06:55.620Z,31.73
2022-10-30T19:11:58.029Z,26.38
2022-10-30T19:17:00.400Z,31.27
2022-10-30T19:22:02.740Z,31.27
2022-10-30T19:27:05.168Z,32.72
2022-10-30T19:32:07.364Z,28.35
2022-10-30T19:37:10.161Z,31.98
2022-10-30T19:42:12.343Z,33.95
2022-10-30T19:47:14.733Z,23.60
2022-10-30T19:52:17.164Z,31.92
2022-10-30T19:57:19.411Z,39.42
2022-10-30T20:02:21.765Z,35.72
2022-10-30T20:07:24.235Z,28.65
2022-10-30T20:12:26.524Z,39.15
2022-10-30T20:17:29.049Z,34.38
2022-10-30T20:22:31.266Z,33.72
2022-10-30T20:27:33.523Z,31.13
2022-10-30T20:32:35.880Z,30.90
2022-10-30T20:37:38.153Z,25.20
2022-10-30T20:42:40.634Z,24.45
2022-10-30T20:47:43.917Z,26.08
2022-10-30T20:52:46.926Z,32.63
2022-10-30T20:57:49.151Z,29.92
2022-10-30T21:02:51.750Z,40.60
2022-10-30T21:07:54.269Z,29.20
2022-10-30T21:12:58.921Z,29.42
2022-10-30T21:18:04.440Z,32.83
2022-10-30T21:23:07.138Z,37.20
2022-10-30T21:28:09.368Z,30.67
2022-10-30T21:33:11.681Z,38.72
2022-10-30T21:38:13.942Z,21.50
2022-10-30T21:43:16.153Z,33.20
2022-10-30T21:48:18.488Z,24.10
2022-10-30T21:53:20.848Z,29.70
2022-10-30T21:58:23.229Z,57.38
2022-10-30T22:03:25.821Z,27.45
2022-10-30T22:08:28.250Z,31.40
2022-10-30T22:13:30.583Z,33.28
2022-10-30T22:18:33.657Z,25.45
2022-10-30T22:23:37.857Z,25.67
2022-10-30T22:28:40.093Z,33.38
2022-10-30T22:33:44.372Z,25.40
2022-10-30T22:38:48.011Z,33.60
2022-10-30T22:43:51.562Z,29.50
2022-10-30T22:48:53.982Z,25.58
2022-10-30T22:54:01.307Z,28.33
2022-10-30T22:59:06.373Z,26.08
2022-10-30T23:04:11.317Z,22.35
2022-10-30T23:09:21.681Z,19.63
2022-10-30T23:14:27.376Z,22.77
2022-10-30T23:19:30.039Z,25.23
2022-10-30T23:24:32.434Z,19.92
2022-10-30T23:29:34.607Z,23.42
2022-10-30T23:34:36.814Z,26.95
2022-10-30T23:39:38.993Z,22.10
2022-10-30T23:44:41.219Z,31.10
2022-10-30T23:49:43.463Z,18.63
2022-10-30T23:54:45.943Z,25.58
2022-10-30T23:59:48.390Z,21.35
